RCKH

Kaohsiung International Airport

Kaohsiung City, Taiwan
TAF RCKH 210500Z 2106/2212 26010KT 9999 FEW015 BKN024 TEMPO 2108/2111 17008G18KT 3200 TSRA SCT006 BKN014 FEW015CB BKN030 BECMG 2111/2113 27005KT FEW015 BKN032 TEMPO 2205/2209 28010KT TEMPO 2209/2212 4000 SHRA SCT012 BKN018 BKN040
Issued Valid From Valid To
Jul-21 @ 05:00 UTC
(5 hours ago)
Jul-21 @ 06:00 UTC
(4 hours ago)
Jul-22 @ 12:00 UTC
(-1 days ago)
Jul-21 @ 06:00 to Jul-21 @ 11:00
TAF RCKH 210500Z 2106/2212 26010KT 9999 FEW015 BKN024
Wind Visibility Clouds
260° at 10 knots 10,000+ meters
  • Few at 1,500' AGL
  • Broken at 2,400' AGL
Temporary Jul-21 @ 08:00 to Jul-21 @ 11:00
TEMPO 2108/2111 17008G18KT 3200 TSRA SCT006 BKN014 FEW015CB BKN030
Wind Visibility Clouds Conditions
170° at 8 knots
 Gusting to 18 knots
3,203 meters
  • Scattered at 600' AGL
  • Broken at 1,400' AGL
  • Few at 1,500' AGL
  • Thunderstorm
  • Rain
Becoming Jul-21 @ 11:00 to Jul-22 @ 12:00
BECMG 2111/2113 27005KT FEW015 BKN032
Wind Visibility Clouds
270° at 5 knots 10,000+ meters
  • Few at 1,500' AGL
  • Broken at 3,200' AGL
Temporary Jul-22 @ 05:00 to Jul-22 @ 09:00
TEMPO 2205/2209 28010KT
Wind
280° at 10 knots
Temporary Jul-22 @ 09:00 to Jul-22 @ 12:00
TEMPO 2209/2212 4000 SHRA SCT012 BKN018 BKN040
Visibility Clouds Conditions
4,007 meters
  • Scattered at 1,200' AGL
  • Broken at 1,800' AGL
  • Broken at 4,000' AGL
  • Rain
TAF RCKH 210500Z 2106/2212 26010KT 9999 FEW015 BKN024 TEMPO 2108/2111 17008G18KT 3200 TSRA SCT006 BKN014 FEW015CB BKN030 BECMG 2111/2113 27005KT FEW015 BKN032 TEMPO 2205/2209 28010KT TEMPO 2209/2212 4000 SHRA SCT012 BKN018 BKN040
Issued Jul-21 @ 05:00 UTC
(5 hours ago)
Valid From Jul-21 @ 06:00 UTC
(4 hours ago)
Valid To Jul-22 @ 12:00 UTC
(-1 days ago)
Jul-21 @ 06:00 - Jul-21 @ 11:00
Wind Visibility
260° at 10 knots 10,000+ meters
Clouds
  • Few at 1,500' AGL
  • Broken at 2,400' AGL
Temporary Jul-21 @ 08:00 - Jul-21 @ 11:00
Wind Visibility
170° at 8 knots
 Gusting to 18 knots
3,203 meters
Clouds
  • Scattered at 600' AGL
  • Broken at 1,400' AGL
  • Few at 1,500' AGL
Conditions
  • Thunderstorm
  • Rain
Becoming Jul-21 @ 11:00 - Jul-22 @ 12:00
Wind Visibility
270° at 5 knots 10,000+ meters
Clouds
  • Few at 1,500' AGL
  • Broken at 3,200' AGL
Temporary Jul-22 @ 05:00 - Jul-22 @ 09:00
Wind
280° at 10 knots
Temporary Jul-22 @ 09:00 - Jul-22 @ 12:00
Clouds
  • Scattered at 1,200' AGL
  • Broken at 1,800' AGL
  • Broken at 4,000' AGL
Conditions
  • Rain